Time;durP1;ratioP1;P1;durP2;ratioP2;P2;SDS_P1;SDS_P2;PMS_P1;PMS_P2;Temp;Humidity;BMP_temperature;BMP_pressure;BME280_temperature;BME280_humidity;BME280_pressure;Samples;Min_cycle;Max_cycle;Signal;HPM_P1;HPM_P2
2023/03/18 00:01:11;;;;;;;;;;;;;;;-3.17;87.90;93782.47;5014998;28;20363;-38
2023/03/18 00:03:37;;;;;;;;;;;;;;;-3.14;88.12;93784.25;5017046;28;19946;-38
2023/03/18 00:06:12;;;;;;;;;;;;;;;-2.94;87.48;93791.09;5022843;28;19938;-38
2023/03/18 00:08:38;;;;;;;;;;;;;;;-2.98;86.59;93782.41;5028995;28;19980;-38
2023/03/18 00:11:04;;;;;;;;;;;;;;;-3.04;87.07;93781.53;5026977;28;19989;-38
2023/03/18 00:13:30;;;;;;;;;;;;;;;-3.11;88.15;93774.50;5028790;28;20477;-38
2023/03/18 00:15:56;;;;;;;;;;;;;;;-3.23;88.23;93778.13;5031627;28;19939;-39
2023/03/18 00:18:21;;;;;;;;;;;;;;;-2.97;88.28;93762.31;5040357;28;19945;-39
2023/03/18 00:20:47;;;;;;;;;;;;;;;-3.01;87.63;93764.44;5039929;28;20577;-39
2023/03/18 00:23:12;;;;;;;;;;;;;;;-3.23;87.59;93761.94;5047459;28;19970;-39
2023/03/18 00:25:37;;;;;;;;;;;;;;;-3.18;88.27;93764.75;5033888;28;19931;-38
2023/03/18 00:28:03;;;;;;;;;;;;;;;-3.08;87.45;93760.09;5033044;28;19981;-39
2023/03/18 00:30:29;;;;;;;;;;;;;;;-3.13;87.54;93749.91;5036270;28;19933;-39
2023/03/18 00:32:54;;;;;;;;;;;;;;;-3.12;87.71;93752.13;5037881;28;20424;-38
2023/03/18 00:35:20;;;;;;;;;;;;;;;-2.99;87.65;93745.81;5031008;28;19944;-38
2023/03/18 00:37:47;;;;;;;;;;;;;;;-3.12;86.78;93746.00;5032991;28;19982;-38
2023/03/18 00:40:16;;;;;;;;;;;;;;;-3.19;87.22;93747.06;5029689;28;19935;-39
2023/03/18 00:42:46;;;;;;;;;;;;;;;-3.00;86.62;93734.25;5034931;28;19959;-38
2023/03/18 00:45:12;;;;;;;;;;;;;;;-2.79;85.74;93733.28;5034675;28;19938;-38
2023/03/18 00:47:37;;;;;;;;;;;;;;;-3.07;86.17;93732.63;5024563;28;20317;-38
2023/03/18 00:50:03;;;;;;;;;;;;;;;-3.29;86.88;93725.94;5030373;28;19950;-38
2023/03/18 00:52:29;;;;;;;;;;;;;;;-3.50;87.76;93724.16;5032342;28;19988;-38
2023/03/18 00:54:55;;;;;;;;;;;;;;;-3.59;88.14;93724.91;5026862;28;20329;-38
2023/03/18 00:57:21;;;;;;;;;;;;;;;-3.67;88.46;93712.19;5037091;28;19935;-38
2023/03/18 00:59:47;;;;;;;;;;;;;;;-3.69;88.79;93711.91;5032790;28;19965;-38
2023/03/18 01:02:12;;;;;;;;;;;;;;;-3.54;89.14;93712.78;5026697;28;19962;-38
2023/03/18 01:04:38;;;;;;;;;;;;;;;-3.46;88.52;93717.41;5027761;28;19941;-38
2023/03/18 01:07:04;;;;;;;;;;;;;;;-3.53;88.20;93706.91;5028892;28;19936;-38
2023/03/18 01:09:30;;;;;;;;;;;;;;;-3.50;88.03;93706.03;5033155;28;19933;-38
2023/03/18 01:11:56;;;;;;;;;;;;;;;-3.60;87.50;93706.50;5024724;28;20344;-38
2023/03/18 01:14:21;;;;;;;;;;;;;;;-3.79;87.90;93707.72;5030742;28;20038;-38
2023/03/18 01:16:46;;;;;;;;;;;;;;;-3.68;87.76;93700.63;5021792;28;20420;-38
2023/03/18 01:19:12;;;;;;;;;;;;;;;-3.40;87.00;93710.19;5034428;28;19947;-38
2023/03/18 01:21:38;;;;;;;;;;;;;;;-3.33;86.71;93704.50;5035857;28;19976;-38
2023/03/18 01:24:03;;;;;;;;;;;;;;;-3.39;86.66;93706.31;5031463;28;19936;-38
2023/03/18 01:26:29;;;;;;;;;;;;;;;-3.69;87.52;93706.50;5023895;28;19990;-38
2023/03/18 01:28:54;;;;;;;;;;;;;;;-3.97;88.15;93713.84;5026446;28;20420;-38
2023/03/18 01:31:19;;;;;;;;;;;;;;;-4.06;88.79;93703.06;5032589;28;19926;-38
2023/03/18 01:33:45;;;;;;;;;;;;;;;-4.16;89.56;93702.28;5039396;28;19926;-38
2023/03/18 01:36:10;;;;;;;;;;;;;;;-4.11;89.91;93706.34;5020687;28;19934;-38
2023/03/18 01:38:35;;;;;;;;;;;;;;;-4.00;90.02;93702.00;5027158;28;19928;-39
2023/03/18 01:41:01;;;;;;;;;;;;;;;-3.79;88.85;93696.94;5027137;28;19958;-38
2023/03/18 01:43:27;;;;;;;;;;;;;;;-3.79;89.19;93694.97;5041071;28;19931;-38
2023/03/18 01:45:54;;;;;;;;;;;;;;;-3.80;88.42;93698.88;5042025;28;20406;-38
2023/03/18 01:48:21;;;;;;;;;;;;;;;-3.87;88.13;93701.84;5026593;28;20635;-38
2023/03/18 01:50:48;;;;;;;;;;;;;;;-4.14;88.24;93693.78;5027149;28;19942;-38
2023/03/18 01:53:14;;;;;;;;;;;;;;;-4.15;89.70;93692.25;5028161;28;19984;-38
2023/03/18 01:55:39;;;;;;;;;;;;;;;-3.87;89.60;93682.97;5066612;28;19929;-39
2023/03/18 01:58:06;;;;;;;;;;;;;;;-3.84;88.33;93687.47;5030916;28;19989;-38
2023/03/18 02:00:33;;;;;;;;;;;;;;;-3.65;87.08;93685.50;5062965;28;20018;-38
2023/03/18 02:02:59;;;;;;;;;;;;;;;-4.02;87.22;93687.47;5057769;28;20399;-38
2023/03/18 02:05:25;;;;;;;;;;;;;;;-4.17;88.60;93695.41;5026882;28;19937;-38
2023/03/18 02:07:51;;;;;;;;;;;;;;;-4.26;89.25;93691.94;5028288;28;20339;-38
2023/03/18 02:10:20;;;;;;;;;;;;;;;-4.37;89.89;93689.69;5023627;28;20587;-38
2023/03/18 02:12:48;;;;;;;;;;;;;;;-4.27;90.16;93701.25;5062681;28;19974;-38
2023/03/18 02:15:15;;;;;;;;;;;;;;;-4.19;89.97;93694.38;5030743;28;19939;-38
2023/03/18 02:17:43;;;;;;;;;;;;;;;-4.02;89.13;93695.56;5027572;28;19937;-38
2023/03/18 02:20:15;;;;;;;;;;;;;;;-3.99;88.10;93694.69;5062837;28;20425;-38
2023/03/18 02:22:42;;;;;;;;;;;;;;;-3.99;88.68;93700.84;5028719;28;19950;-38
2023/03/18 02:25:13;;;;;;;;;;;;;;;-3.76;87.75;93699.47;5025082;28;20405;-38
2023/03/18 02:27:39;;;;;;;;;;;;;;;-3.85;86.65;93692.13;5030650;28;19963;-38
2023/03/18 02:30:31;;;;;;;;;;;;;;;-3.80;86.57;93690.03;5045825;28;19930;-38
2023/03/18 02:32:56;;;;;;;;;;;;;;;-4.08;87.89;93697.38;5022479;28;19975;-38
2023/03/18 02:35:22;;;;;;;;;;;;;;;-4.19;88.10;93689.72;5062616;28;19975;-38
2023/03/18 02:37:47;;;;;;;;;;;;;;;-4.11;87.82;93690.16;5055590;28;19938;-38
2023/03/18 02:40:12;;;;;;;;;;;;;;;-4.19;87.31;93686.28;5029304;28;19946;-38
2023/03/18 02:42:37;;;;;;;;;;;;;;;-4.11;87.87;93687.47;5020242;28;20424;-39
2023/03/18 02:45:03;;;;;;;;;;;;;;;-4.16;87.27;93680.00;5028750;28;20493;-39
2023/03/18 02:47:28;;;;;;;;;;;;;;;-4.01;86.89;93694.38;5059227;28;19988;-39
2023/03/18 02:49:54;;;;;;;;;;;;;;;-3.91;85.97;93679.69;5060085;28;19959;-39
2023/03/18 02:52:19;;;;;;;;;;;;;;;-4.01;85.67;93683.59;5019695;28;19938;-39
2023/03/18 02:54:44;;;;;;;;;;;;;;;-3.83;84.43;93681.63;5023429;28;20439;-39
2023/03/18 02:57:09;;;;;;;;;;;;;;;-4.24;84.98;93689.56;5027734;28;19946;-39
2023/03/18 02:59:35;;;;;;;;;;;;;;;-4.19;86.12;93687.03;5021440;28;19968;-39
2023/03/18 03:02:00;;;;;;;;;;;;;;;-4.04;85.58;93695.28;5025264;28;20047;-39
2023/03/18 03:04:25;;;;;;;;;;;;;;;-4.11;85.78;93685.53;5023089;28;19928;-38
2023/03/18 03:06:51;;;;;;;;;;;;;;;-4.29;86.26;93692.88;5023403;28;19946;-38
2023/03/18 03:09:17;;;;;;;;;;;;;;;-4.35;86.77;93686.56;5028112;28;19938;-38
2023/03/18 03:11:43;;;;;;;;;;;;;;;-4.44;87.12;93698.06;5032057;28;20413;-38
2023/03/18 03:14:09;;;;;;;;;;;;;;;-4.41;86.70;93691.03;5020424;28;19948;-39
2023/03/18 03:16:35;;;;;;;;;;;;;;;-4.38;86.39;93696.31;5023375;28;20411;-38
2023/03/18 03:19:01;;;;;;;;;;;;;;;-4.75;87.12;93682.00;5025667;28;19943;-38
2023/03/18 03:21:26;;;;;;;;;;;;;;;-4.71;87.51;93687.25;5026180;28;20382;-39
2023/03/18 03:23:53;;;;;;;;;;;;;;;-4.55;87.81;93680.84;5026528;28;19998;-39
2023/03/18 03:26:19;;;;;;;;;;;;;;;-4.74;87.27;93683.50;5031006;28;19946;-39
2023/03/18 03:28:45;;;;;;;;;;;;;;;-4.75;88.44;93676.63;5037907;28;19934;-39
2023/03/18 03:31:10;;;;;;;;;;;;;;;-4.70;88.02;93681.41;5023863;28;20411;-39
2023/03/18 03:33:40;;;;;;;;;;;;;;;-4.78;88.30;93693.66;5032908;28;19930;-39
2023/03/18 03:36:09;;;;;;;;;;;;;;;-4.56;88.67;93692.81;5030450;28;19977;-39
2023/03/18 03:38:34;;;;;;;;;;;;;;;-4.74;88.83;93685.44;5053797;28;20465;-39
2023/03/18 03:40:59;;;;;;;;;;;;;;;-4.88;88.65;93686.75;5020232;28;19940;-39
2023/03/18 03:43:25;;;;;;;;;;;;;;;-4.91;89.20;93695.72;5031898;28;19967;-39
2023/03/18 03:45:50;;;;;;;;;;;;;;;-4.98;89.95;93693.28;5027185;28;19941;-39
2023/03/18 03:48:15;;;;;;;;;;;;;;;-5.03;90.70;93691.19;5029752;28;19934;-39
2023/03/18 03:50:40;;;;;;;;;;;;;;;-5.07;90.56;93693.28;5022192;28;19934;-39
2023/03/18 03:53:06;;;;;;;;;;;;;;;-5.10;91.11;93702.22;5029890;28;20385;-39
2023/03/18 03:55:32;;;;;;;;;;;;;;;-5.02;91.01;93702.69;5027238;28;19990;-39
2023/03/18 03:57:57;;;;;;;;;;;;;;;-4.77;90.75;93703.25;5028853;28;19970;-38
2023/03/18 04:00:23;;;;;;;;;;;;;;;-4.73;90.39;93709.25;5022186;28;20022;-38
2023/03/18 04:02:49;;;;;;;;;;;;;;;-4.68;89.71;93705.22;5022997;28;19956;-38
2023/03/18 04:05:16;;;;;;;;;;;;;;;-4.73;89.74;93708.50;5028328;28;19936;-38
2023/03/18 04:07:41;;;;;;;;;;;;;;;-4.64;90.45;93711.22;5022672;28;20338;-38
2023/03/18 04:10:08;;;;;;;;;;;;;;;-4.86;88.27;93716.69;5024937;28;19939;-39
2023/03/18 04:12:34;;;;;;;;;;;;;;;-4.78;88.17;93723.28;5026344;28;19938;-38
2023/03/18 04:14:59;;;;;;;;;;;;;;;-4.72;86.67;93721.50;5027535;28;19935;-38
2023/03/18 04:17:25;;;;;;;;;;;;;;;-4.75;87.41;93725.09;5024500;28;20027;-38
2023/03/18 04:19:50;;;;;;;;;;;;;;;-4.52;87.05;93726.50;5027517;28;20099;-38
2023/03/18 04:22:15;;;;;;;;;;;;;;;-4.69;86.88;93739.47;5028750;28;19950;-38
2023/03/18 04:24:41;;;;;;;;;;;;;;;-4.85;86.90;93737.00;5027538;28;19964;-38
2023/03/18 04:27:06;;;;;;;;;;;;;;;-4.73;87.26;93730.03;5024755;28;20442;-38
2023/03/18 04:29:32;;;;;;;;;;;;;;;-4.77;86.81;93740.19;5020839;28;19943;-38
2023/03/18 04:31:57;;;;;;;;;;;;;;;-4.82;87.33;93738.06;5021482;28;19947;-38
2023/03/18 04:34:23;;;;;;;;;;;;;;;-4.66;87.18;93737.84;5022275;28;20039;-38
2023/03/18 04:36:49;;;;;;;;;;;;;;;-4.76;86.76;93733.59;5015796;28;19939;-38
2023/03/18 04:39:15;;;;;;;;;;;;;;;-4.64;87.00;93741.59;5057341;28;20053;-38
2023/03/18 04:41:40;;;;;;;;;;;;;;;-4.51;86.30;93738.03;5055102;28;19948;-38
2023/03/18 04:44:05;;;;;;;;;;;;;;;-4.57;86.43;93737.88;5028203;28;20380;-38
2023/03/18 04:46:31;;;;;;;;;;;;;;;-4.54;86.48;93728.88;5024003;28;19936;-38
2023/03/18 04:48:57;;;;;;;;;;;;;;;-4.47;86.51;93736.69;5028286;28;19940;-38
2023/03/18 04:51:22;;;;;;;;;;;;;;;-4.88;87.45;93734.47;5027151;28;19993;-38
2023/03/18 04:53:48;;;;;;;;;;;;;;;-5.12;87.92;93728.84;5019144;28;20421;-38
2023/03/18 04:56:13;;;;;;;;;;;;;;;-4.89;87.88;93732.97;5023132;28;19942;-38
2023/03/18 04:58:38;;;;;;;;;;;;;;;-4.82;87.27;93725.38;5024845;28;19998;-39
2023/03/18 05:01:04;;;;;;;;;;;;;;;-4.76;86.86;93731.66;5023853;28;19964;-38
2023/03/18 05:03:29;;;;;;;;;;;;;;;-4.71;87.34;93727.66;5033106;28;19945;-38
2023/03/18 05:05:55;;;;;;;;;;;;;;;-4.69;86.82;93730.66;5025895;28;19942;-38
2023/03/18 05:08:21;;;;;;;;;;;;;;;-4.63;86.60;93734.25;5023609;28;19948;-38
2023/03/18 05:10:46;;;;;;;;;;;;;;;-4.56;85.86;93738.59;5021857;28;19937;-38
2023/03/18 05:13:11;;;;;;;;;;;;;;;-4.42;85.44;93743.44;5053927;28;19937;-38
2023/03/18 05:15:37;;;;;;;;;;;;;;;-4.51;85.46;93730.72;5019122;28;19958;-38
2023/03/18 05:18:03;;;;;;;;;;;;;;;-4.43;86.22;93742.69;5026774;28;19940;-38
2023/03/18 05:20:29;;;;;;;;;;;;;;;-4.45;86.17;93738.94;5022438;28;19942;-38
2023/03/18 05:22:54;;;;;;;;;;;;;;;-4.26;86.72;93741.22;5031318;28;19964;-38
2023/03/18 05:25:20;;;;;;;;;;;;;;;-4.42;87.56;93733.44;5026733;28;19943;-38
2023/03/18 05:27:46;;;;;;;;;;;;;;;-4.30;87.32;93739.88;5023288;28;19936;-38
2023/03/18 05:30:12;;;;;;;;;;;;;;;-4.20;88.28;93742.13;5018621;28;20417;-38
2023/03/18 05:32:37;;;;;;;;;;;;;;;-4.20;88.00;93731.34;5050141;28;19939;-38
2023/03/18 05:35:03;;;;;;;;;;;;;;;-4.07;88.13;93740.06;5027703;28;19982;-38
2023/03/18 05:37:28;;;;;;;;;;;;;;;-3.87;87.91;93732.28;5018043;28;19930;-38
2023/03/18 05:39:54;;;;;;;;;;;;;;;-3.73;87.20;93741.72;5032576;28;19937;-38
2023/03/18 05:42:19;;;;;;;;;;;;;;;-3.53;85.95;93747.41;5024671;28;20016;-38
2023/03/18 05:44:44;;;;;;;;;;;;;;;-3.78;87.01;93747.72;5025764;28;19935;-38
2023/03/18 05:47:10;;;;;;;;;;;;;;;-3.70;87.17;93743.50;5022244;28;20461;-38
2023/03/18 05:49:35;;;;;;;;;;;;;;;-3.48;87.36;93746.03;5024167;28;20570;-38
2023/03/18 05:52:01;;;;;;;;;;;;;;;-3.32;87.07;93745.75;5024783;28;20431;-38
2023/03/18 05:54:27;;;;;;;;;;;;;;;-3.07;86.26;93739.97;5028825;28;20006;-38
2023/03/18 05:56:53;;;;;;;;;;;;;;;-2.94;85.81;93742.47;5032710;28;20379;-38
2023/03/18 05:59:18;;;;;;;;;;;;;;;-2.97;85.87;93738.00;5029767;28;19943;-38
2023/03/18 06:01:44;;;;;;;;;;;;;;;-2.77;85.69;93743.66;5030826;28;20713;-38
2023/03/18 06:04:10;;;;;;;;;;;;;;;-2.59;85.76;93732.75;5026469;28;19997;-38
2023/03/18 06:06:39;;;;;;;;;;;;;;;-2.51;86.13;93740.06;5027984;28;19938;-38
2023/03/18 06:09:05;;;;;;;;;;;;;;;-2.44;85.68;93739.75;5057474;28;20326;-38
2023/03/18 06:11:31;;;;;;;;;;;;;;;-2.04;84.98;93742.06;5024105;28;19945;-38
2023/03/18 06:13:57;;;;;;;;;;;;;;;-1.58;83.99;93737.81;5028130;28;19941;-38
2023/03/18 06:16:22;;;;;;;;;;;;;;;-1.14;83.15;93734.41;5026354;28;19944;-38
2023/03/18 06:18:47;;;;;;;;;;;;;;;-0.95;80.88;93733.00;5019526;28;20423;-38
2023/03/18 06:21:13;;;;;;;;;;;;;;;-0.75;81.30;93733.09;5019888;28;19954;-39
2023/03/18 06:23:38;;;;;;;;;;;;;;;0.25;77.90;93732.53;5023562;28;20412;-39
2023/03/18 06:26:04;;;;;;;;;;;;;;;0.46;74.70;93739.47;5024532;28;19936;-39
2023/03/18 06:28:29;;;;;;;;;;;;;;;0.93;73.06;93737.50;5030446;28;20739;-38
2023/03/18 06:30:56;;;;;;;;;;;;;;;1.15;71.68;93735.72;5030099;28;19937;-38
2023/03/18 06:33:21;;;;;;;;;;;;;;;1.34;70.63;93744.28;5021179;28;19976;-38
2023/03/18 06:35:47;;;;;;;;;;;;;;;1.40;70.47;93737.69;5026617;28;19969;-38
2023/03/18 06:38:13;;;;;;;;;;;;;;;1.66;69.78;93747.75;5026429;28;19983;-38
2023/03/18 06:40:39;;;;;;;;;;;;;;;1.47;70.00;93742.66;5027305;28;19944;-38
2023/03/18 06:43:04;;;;;;;;;;;;;;;1.85;70.04;93737.97;5025060;28;19954;-38
2023/03/18 06:45:30;;;;;;;;;;;;;;;3.23;66.51;93730.31;5025801;28;19943;-38
2023/03/18 06:47:55;;;;;;;;;;;;;;;5.10;61.14;93727.66;5020600;28;19952;-38
2023/03/18 06:50:21;;;;;;;;;;;;;;;7.41;53.80;93723.84;5030294;28;19930;-38
2023/03/18 06:52:46;;;;;;;;;;;;;;;9.07;49.69;93712.66;5027760;28;20498;-38
2023/03/18 06:55:13;;;;;;;;;;;;;;;11.16;45.98;93712.78;5028158;28;20036;-38
2023/03/18 06:57:39;;;;;;;;;;;;;;;12.06;42.49;93715.81;5028267;28;19945;-38
2023/03/18 07:00:04;;;;;;;;;;;;;;;13.36;39.98;93717.88;5026257;28;19961;-39
2023/03/18 07:02:30;;;;;;;;;;;;;;;14.47;36.30;93719.09;5020852;28;19966;-38
2023/03/18 07:04:56;;;;;;;;;;;;;;;14.74;36.98;93717.22;5029263;28;19984;-38
2023/03/18 07:07:21;;;;;;;;;;;;;;;14.07;37.00;93721.97;5021272;28;19926;-38
2023/03/18 07:09:47;;;;;;;;;;;;;;;15.87;33.52;93713.16;5022015;28;20346;-38
2023/03/18 07:12:12;;;;;;;;;;;;;;;15.80;32.95;93714.03;5025661;28;20440;-38
2023/03/18 07:14:38;;;;;;;;;;;;;;;15.46;33.99;93711.31;5026743;28;19959;-38
2023/03/18 07:17:03;;;;;;;;;;;;;;;15.37;32.91;93702.84;5028439;28;20421;-38
2023/03/18 07:19:31;;;;;;;;;;;;;;;16.57;31.46;93706.03;5023331;28;20031;-38
2023/03/18 07:21:56;;;;;;;;;;;;;;;16.13;31.95;93700.56;5020519;28;20329;-38
2023/03/18 07:24:22;;;;;;;;;;;;;;;17.25;29.48;93705.59;5019299;28;19939;-38
2023/03/18 07:26:49;;;;;;;;;;;;;;;17.52;29.39;93705.47;5024473;28;19935;-38
2023/03/18 07:29:15;;;;;;;;;;;;;;;18.59;28.31;93710.25;5026430;28;19981;-38
2023/03/18 07:31:40;;;;;;;;;;;;;;;18.52;29.66;93711.16;5018769;28;19967;-38
2023/03/18 07:34:06;;;;;;;;;;;;;;;18.92;29.64;93711.13;5024291;28;20470;-38
2023/03/18 07:36:32;;;;;;;;;;;;;;;19.51;28.05;93707.38;5023681;28;19967;-38
2023/03/18 07:38:58;;;;;;;;;;;;;;;20.21;27.93;93714.69;5027033;28;20027;-38
2023/03/18 07:41:24;;;;;;;;;;;;;;;20.01;27.70;93716.19;5023045;28;19951;-38
2023/03/18 07:43:50;;;;;;;;;;;;;;;19.86;26.59;93721.53;5018752;28;19933;-38
2023/03/18 07:46:15;;;;;;;;;;;;;;;19.88;26.58;93713.97;5022589;28;20469;-38
2023/03/18 07:48:41;;;;;;;;;;;;;;;18.93;27.54;93712.56;5021846;28;20373;-38
2023/03/18 07:51:06;;;;;;;;;;;;;;;19.58;28.25;93693.13;5028094;28;19935;-38
2023/03/18 07:53:32;;;;;;;;;;;;;;;20.48;27.35;93689.03;5022209;28;20034;-38
2023/03/18 07:55:57;;;;;;;;;;;;;;;20.93;25.93;93695.22;5023307;28;20809;-38
2023/03/18 07:58:24;;;;;;;;;;;;;;;20.27;24.71;93687.03;5010400;28;20422;-38
2023/03/18 08:00:50;;;;;;;;;;;;;;;20.46;24.93;93696.56;5023063;28;20360;-38
2023/03/18 08:03:18;;;;;;;;;;;;;;;21.48;21.87;93699.94;5025490;28;20353;-38
2023/03/18 08:05:43;;;;;;;;;;;;;;;22.22;21.88;93691.47;5023118;28;19939;-38
2023/03/18 08:08:08;;;;;;;;;;;;;;;22.25;21.46;93695.81;5015036;28;20028;-38
2023/03/18 08:10:34;;;;;;;;;;;;;;;21.99;20.73;93697.19;5021703;28;19942;-37
2023/03/18 08:12:59;;;;;;;;;;;;;;;20.44;23.31;93700.00;5020848;28;20019;-38
2023/03/18 08:15:24;;;;;;;;;;;;;;;17.93;25.11;93698.66;5021443;28;19933;-37
2023/03/18 08:17:51;;;;;;;;;;;;;;;16.39;27.96;93704.63;5020289;28;19936;-38
2023/03/18 08:20:16;;;;;;;;;;;;;;;16.08;28.94;93704.34;5016042;28;20006;-38
2023/03/18 08:22:42;;;;;;;;;;;;;;;17.43;28.13;93709.00;5016071;28;19957;-38
2023/03/18 08:25:07;;;;;;;;;;;;;;;18.61;26.44;93704.78;5017027;28;19978;-38
2023/03/18 08:27:33;;;;;;;;;;;;;;;16.77;27.71;93702.00;5016179;28;19937;-38
2023/03/18 08:29:59;;;;;;;;;;;;;;;14.51;30.67;93713.88;5016791;28;19941;-38
2023/03/18 08:32:24;;;;;;;;;;;;;;;16.13;30.96;93711.72;5021355;28;20031;-38
2023/03/18 08:34:50;;;;;;;;;;;;;;;17.85;27.52;93703.69;5014035;28;19940;-38
2023/03/18 08:37:15;;;;;;;;;;;;;;;18.25;26.53;93716.97;5021843;28;19941;-38
2023/03/18 08:39:43;;;;;;;;;;;;;;;16.53;28.89;93711.31;5017969;28;19972;-38
2023/03/18 08:42:09;;;;;;;;;;;;;;;16.30;29.86;93717.22;5020355;28;19979;-38
2023/03/18 08:44:35;;;;;;;;;;;;;;;14.93;30.73;93716.66;5021424;28;19951;-38
2023/03/18 08:47:00;;;;;;;;;;;;;;;14.13;31.16;93719.69;5023673;28;19937;-38
2023/03/18 08:49:26;;;;;;;;;;;;;;;13.19;30.93;93717.75;5017750;28;19941;-38
2023/03/18 08:51:51;;;;;;;;;;;;;;;12.22;33.07;93724.88;5019512;28;19936;-37
2023/03/18 08:54:17;;;;;;;;;;;;;;;11.28;35.50;93722.94;5018058;28;19934;-38
2023/03/18 08:56:43;;;;;;;;;;;;;;;10.49;38.06;93730.44;5028719;28;19978;-38
2023/03/18 08:59:09;;;;;;;;;;;;;;;10.88;37.86;93721.84;5016866;28;20488;-37
2023/03/18 09:01:34;;;;;;;;;;;;;;;10.97;38.45;93735.16;5017806;28;19961;-37
2023/03/18 09:03:59;;;;;;;;;;;;;;;12.98;37.05;93720.00;5020402;28;19986;-37
2023/03/18 09:06:26;;;;;;;;;;;;;;;14.89;32.64;93730.22;5023621;28;19941;-38
2023/03/18 09:08:51;;;;;;;;;;;;;;;15.90;31.43;93714.81;5019455;28;20430;-38
2023/03/18 09:11:17;;;;;;;;;;;;;;;17.06;30.45;93713.22;5023060;28;19937;-38
2023/03/18 09:13:42;;;;;;;;;;;;;;;18.51;27.04;93713.25;5018187;28;19942;-38
2023/03/18 09:16:08;;;;;;;;;;;;;;;16.03;29.37;93713.69;5018322;28;19952;-38
2023/03/18 09:18:34;;;;;;;;;;;;;;;14.62;32.08;93712.69;5014661;28;19937;-38
2023/03/18 09:20:59;;;;;;;;;;;;;;;13.36;33.33;93712.31;5018111;28;19936;-37
2023/03/18 09:23:26;;;;;;;;;;;;;;;12.68;32.18;93718.03;5025666;28;19932;-36
2023/03/18 09:25:53;;;;;;;;;;;;;;;12.58;32.00;93721.91;5025275;28;19935;-38
2023/03/18 09:28:18;;;;;;;;;;;;;;;11.72;34.09;93712.63;5028683;28;19935;-38
2023/03/18 09:30:44;;;;;;;;;;;;;;;13.47;33.01;93711.19;5028209;28;19937;-38
2023/03/18 09:33:10;;;;;;;;;;;;;;;14.90;29.14;93715.03;5026954;28;20023;-39
2023/03/18 09:35:36;;;;;;;;;;;;;;;14.85;28.60;93722.31;5030241;28;20463;-36
2023/03/18 09:38:03;;;;;;;;;;;;;;;13.16;30.24;93713.34;5020240;28;19998;-38
2023/03/18 09:40:30;;;;;;;;;;;;;;;12.47;32.07;93725.06;5021032;28;19955;-37
2023/03/18 09:43:14;;;;;;;;;;;;;;;12.34;31.85;93720.47;5029801;28;20075;-37
2023/03/18 09:45:48;;;;;;;;;;;;;;;11.77;33.15;93722.78;5031099;28;19959;-37
2023/03/18 09:48:21;;;;;;;;;;;;;;;10.56;34.17;93724.97;5021916;28;20059;-37
2023/03/18 09:50:49;;;;;;;;;;;;;;;11.23;36.70;93723.88;5028495;28;19936;-37
2023/03/18 09:53:47;;;;;;;;;;;;;;;13.37;34.06;93724.91;5023635;28;19946;-38
2023/03/18 09:56:16;;;;;;;;;;;;;;;14.61;29.39;93727.88;5038967;28;20347;-38
2023/03/18 09:58:55;;;;;;;;;;;;;;;14.55;28.93;93730.16;5057933;28;20409;-38
2023/03/18 10:01:22;;;;;;;;;;;;;;;12.99;29.82;93740.88;5022047;28;19964;-38
2023/03/18 10:03:49;;;;;;;;;;;;;;;13.79;28.18;93741.75;5061089;28;19934;-38
2023/03/18 10:06:15;;;;;;;;;;;;;;;13.60;29.26;93738.66;5045280;28;19989;-38
2023/03/18 10:08:46;;;;;;;;;;;;;;;12.81;30.08;93734.44;5020486;28;19936;-38
2023/03/18 10:11:22;;;;;;;;;;;;;;;13.50;30.85;93732.25;5028807;28;20402;-38
2023/03/18 10:13:52;;;;;;;;;;;;;;;14.20;33.01;93737.63;5062001;28;20372;-38
2023/03/18 10:16:21;;;;;;;;;;;;;;;14.35;30.46;93737.53;5029857;28;19969;-38
2023/03/18 10:18:46;;;;;;;;;;;;;;;13.04;33.75;93739.94;5058825;28;20754;-38
2023/03/18 10:21:11;;;;;;;;;;;;;;;11.52;35.85;93740.38;5026561;28;19945;-37
2023/03/18 10:23:43;;;;;;;;;;;;;;;11.35;35.93;93729.81;5022718;28;19980;-38
2023/03/18 10:26:14;;;;;;;;;;;;;;;10.76;35.86;93742.03;5017133;28;19934;-38
2023/03/18 10:28:42;;;;;;;;;;;;;;;11.59;34.88;93737.63;5020814;28;19990;-38
2023/03/18 10:31:10;;;;;;;;;;;;;;;11.74;33.81;93734.19;5043471;28;19947;-37
2023/03/18 10:33:40;;;;;;;;;;;;;;;12.50;33.81;93740.56;5046432;28;19926;-37
2023/03/18 10:36:09;;;;;;;;;;;;;;;11.05;34.44;93735.94;5048915;28;19982;-37
2023/03/18 10:38:36;;;;;;;;;;;;;;;11.27;35.79;93735.31;5029543;28;19973;-37
2023/03/18 10:41:01;;;;;;;;;;;;;;;10.93;36.44;93742.31;5029870;28;19942;-37
2023/03/18 10:43:30;;;;;;;;;;;;;;;11.41;37.68;93741.44;5058061;28;20011;-37
2023/03/18 10:45:59;;;;;;;;;;;;;;;13.26;34.89;93732.88;5027155;28;19946;-39
2023/03/18 10:48:32;;;;;;;;;;;;;;;13.93;31.49;93733.88;5059482;28;20063;-38
2023/03/18 10:51:07;;;;;;;;;;;;;;;14.38;31.33;93739.91;5044138;28;19936;-38
2023/03/18 10:53:44;;;;;;;;;;;;;;;14.75;29.35;93732.56;5025754;28;20001;-38
2023/03/18 10:56:10;;;;;;;;;;;;;;;15.11;31.81;93730.00;5034630;28;19952;-38
2023/03/18 10:58:40;;;;;;;;;;;;;;;15.93;29.45;93729.63;5058677;28;19935;-38
2023/03/18 11:01:06;;;;;;;;;;;;;;;14.92;26.79;93732.59;5028845;28;19968;-38
2023/03/18 11:03:33;;;;;;;;;;;;;;;12.94;31.98;93728.69;5025727;28;19950;-38
2023/03/18 11:06:00;;;;;;;;;;;;;;;12.51;32.27;93734.47;5057256;28;19937;-37
2023/03/18 11:08:33;;;;;;;;;;;;;;;10.94;33.88;93724.44;5023334;28;19954;-38
2023/03/18 11:11:01;;;;;;;;;;;;;;;9.84;35.71;93732.25;5028251;28;19942;-37
2023/03/18 11:13:27;;;;;;;;;;;;;;;9.51;36.75;93730.25;5027984;28;20078;-38
2023/03/18 11:15:53;;;;;;;;;;;;;;;9.52;37.08;93742.78;5029881;28;19970;-37
2023/03/18 11:18:20;;;;;;;;;;;;;;;9.58;38.63;93740.63;5042972;28;19989;-37
2023/03/18 11:20:48;;;;;;;;;;;;;;;9.79;40.43;93735.13;5022858;28;19938;-37
2023/03/18 11:23:16;;;;;;;;;;;;;;;9.57;37.86;93739.13;5059290;28;20458;-37
2023/03/18 11:25:44;;;;;;;;;;;;;;;9.24;38.12;93728.13;5052420;28;20029;-37
2023/03/18 11:28:17;;;;;;;;;;;;;;;9.23;39.06;93727.38;5055577;28;19976;-38
2023/03/18 11:30:43;;;;;;;;;;;;;;;9.52;38.39;93737.25;5057792;28;19936;-37
2023/03/18 11:33:09;;;;;;;;;;;;;;;9.34;36.16;93732.63;5029824;28;19930;-37
2023/03/18 11:35:53;;;;;;;;;;;;;;;9.03;37.44;93720.50;5031223;28;19938;-37
2023/03/18 11:38:27;;;;;;;;;;;;;;;8.84;35.53;93728.16;5021336;28;19936;-37
2023/03/18 11:40:52;;;;;;;;;;;;;;;9.68;35.50;93713.34;5028629;28;19949;-37
2023/03/18 11:43:19;;;;;;;;;;;;;;;9.09;36.72;93718.41;5027550;28;20344;-37
2023/03/18 11:45:44;;;;;;;;;;;;;;;8.36;36.76;93712.06;5028832;28;19977;-37
2023/03/18 11:48:17;;;;;;;;;;;;;;;8.77;37.75;93708.81;5027281;28;19940;-37
2023/03/18 11:50:52;;;;;;;;;;;;;;;8.87;36.67;93713.34;5027666;28;19943;-37
2023/03/18 11:53:27;;;;;;;;;;;;;;;9.02;37.28;93713.53;5028069;28;20025;-37
2023/03/18 11:55:52;;;;;;;;;;;;;;;9.54;36.57;93707.16;5057316;28;19934;-37
2023/03/18 11:58:27;;;;;;;;;;;;;;;9.31;36.42;93705.41;5025809;28;20387;-37
2023/03/18 12:00:52;;;;;;;;;;;;;;;8.85;36.88;93702.13;5025877;28;19970;-37
2023/03/18 12:03:42;;;;;;;;;;;;;;;9.27;38.67;93705.00;5029792;28;19956;-38
2023/03/18 12:06:27;;;;;;;;;;;;;;;9.92;34.40;93708.25;5058304;28;19936;-38
2023/03/18 12:09:02;;;;;;;;;;;;;;;10.91;34.64;93697.94;5038767;28;19940;-38
2023/03/18 12:11:27;;;;;;;;;;;;;;;10.17;34.77;93705.16;5041454;28;20036;-37
2023/03/18 12:14:12;;;;;;;;;;;;;;;10.64;33.22;93700.91;5027157;28;20041;-38
2023/03/18 12:16:46;;;;;;;;;;;;;;;11.64;34.09;93711.09;5022964;28;19939;-37
2023/03/18 12:19:16;;;;;;;;;;;;;;;11.72;32.72;93709.09;5017671;28;19941;-38
2023/03/18 12:22:17;;;;;;;;;;;;;;;11.68;32.47;93698.41;5061465;28;20046;-38
2023/03/18 12:25:12;;;;;;;;;;;;;;;11.53;33.78;93694.84;5045275;28;19984;-37
2023/03/18 12:27:49;;;;;;;;;;;;;;;11.83;31.63;93689.41;5007837;28;19940;-37
2023/03/18 12:30:34;;;;;;;;;;;;;;;11.08;33.16;93692.66;5025540;28;19928;-38
2023/03/18 12:33:05;;;;;;;;;;;;;;;9.75;35.31;93702.38;5029631;28;19936;-37
2023/03/18 12:35:36;;;;;;;;;;;;;;;9.90;36.95;93704.53;5015906;28;19937;-37
2023/03/18 12:38:16;;;;;;;;;;;;;;;9.36;37.27;93710.06;5021758;28;19939;-37
2023/03/18 12:40:47;;;;;;;;;;;;;;;9.67;37.35;93704.34;5020194;28;19942;-37
2023/03/18 12:43:12;;;;;;;;;;;;;;;10.38;35.42;93703.84;5019987;28;20468;-37
2023/03/18 12:45:39;;;;;;;;;;;;;;;10.22;34.64;93705.00;5020516;28;19942;-38
2023/03/18 12:48:08;;;;;;;;;;;;;;;9.58;35.66;93685.50;5022366;28;20045;-38